createdAt,value
2023-05-21T00:00:23.653Z,17.05
2023-05-21T00:02:51.586Z,17.09
2023-05-21T00:05:18.933Z,17.07
2023-05-21T00:07:47.268Z,16.99
2023-05-21T00:10:14.258Z,16.87
2023-05-21T00:12:42.040Z,16.49
2023-05-21T00:15:09.626Z,16.00
2023-05-21T00:17:37.124Z,15.71
2023-05-21T00:20:08.938Z,15.84
2023-05-21T00:22:36.458Z,15.94
2023-05-21T00:25:04.265Z,15.90
2023-05-21T00:27:30.976Z,15.80
2023-05-21T00:29:57.857Z,15.74
2023-05-21T00:32:24.602Z,15.61
2023-05-21T00:34:51.336Z,15.73
2023-05-21T00:37:18.034Z,15.62
2023-05-21T00:39:44.695Z,15.57
2023-05-21T00:42:12.363Z,15.65
2023-05-21T00:44:39.383Z,15.46
2023-05-21T00:47:06.710Z,15.41
2023-05-21T00:49:33.248Z,15.48
2023-05-21T00:52:01.748Z,15.41
2023-05-21T00:54:29.468Z,15.29
2023-05-21T00:56:57.072Z,15.35
2023-05-21T00:59:24.249Z,15.28
2023-05-21T01:01:56.094Z,14.96
2023-05-21T01:04:24.144Z,14.61
2023-05-21T01:06:53.526Z,14.57
2023-05-21T01:09:20.553Z,14.83
2023-05-21T01:11:51.066Z,15.03
2023-05-21T01:14:19.831Z,15.12
2023-05-21T01:16:49.711Z,15.11
2023-05-21T01:19:19.704Z,15.31
2023-05-21T01:21:50.945Z,15.34
2023-05-21T01:24:17.680Z,15.41
2023-05-21T01:26:46.635Z,15.40
2023-05-21T01:29:14.525Z,15.39
2023-05-21T01:31:59.595Z,15.41
2023-05-21T01:34:37.891Z,15.33
2023-05-21T01:37:51.246Z,15.40
2023-05-21T01:40:38.449Z,15.39
2023-05-21T01:43:06.505Z,15.34
2023-05-21T01:45:34.663Z,15.33
2023-05-21T01:48:02.707Z,15.35
2023-05-21T01:50:29.807Z,15.42
2023-05-21T01:53:01.267Z,15.49
2023-05-21T01:55:28.292Z,15.33
2023-05-21T01:57:56.026Z,15.21
2023-05-21T02:00:24.663Z,14.97
2023-05-21T02:02:52.032Z,14.97
2023-05-21T02:05:18.632Z,14.88
2023-05-21T02:07:46.261Z,14.85
2023-05-21T02:10:13.300Z,14.87
2023-05-21T02:12:40.004Z,14.88
2023-05-21T02:15:07.349Z,14.72
2023-05-21T02:17:34.329Z,14.20
2023-05-21T02:20:11.215Z,14.08
2023-05-21T02:22:39.980Z,13.81
2023-05-21T02:25:08.214Z,13.49
2023-05-21T02:27:38.855Z,13.65
2023-05-21T02:30:09.303Z,13.76
2023-05-21T02:32:36.327Z,13.82
2023-05-21T02:35:04.372Z,13.87
2023-05-21T02:37:34.935Z,13.98
2023-05-21T02:40:04.338Z,13.85
2023-05-21T02:42:31.141Z,13.76
2023-05-21T02:44:57.840Z,13.95
2023-05-21T02:47:25.601Z,13.95
2023-05-21T02:49:53.230Z,13.84
2023-05-21T02:52:24.071Z,13.85
2023-05-21T02:54:51.709Z,13.68
2023-05-21T02:57:18.464Z,13.57
2023-05-21T02:59:46.002Z,13.56
2023-05-21T03:02:12.853Z,13.73
2023-05-21T03:04:46.454Z,13.77
2023-05-21T03:07:19.207Z,13.83
2023-05-21T03:09:46.556Z,13.82
2023-05-21T03:12:13.623Z,13.95
2023-05-21T03:14:40.341Z,13.69
2023-05-21T03:17:07.131Z,13.34
2023-05-21T03:19:37.446Z,13.17
2023-05-21T03:22:04.729Z,12.87
2023-05-21T03:24:31.942Z,12.86
2023-05-21T03:27:01.154Z,12.88
2023-05-21T03:29:28.698Z,12.81
2023-05-21T03:31:55.805Z,12.73
2023-05-21T03:34:22.657Z,12.47
2023-05-21T03:36:49.540Z,12.76
2023-05-21T03:39:16.450Z,12.78
2023-05-21T03:41:43.361Z,12.88
2023-05-21T03:44:10.202Z,12.73
2023-05-21T03:46:37.260Z,12.77
2023-05-21T03:49:04.113Z,12.81
2023-05-21T03:51:31.917Z,12.98
2023-05-21T03:53:59.552Z,13.06
2023-05-21T03:56:26.522Z,12.97
2023-05-21T03:58:53.308Z,12.98
2023-05-21T04:01:20.444Z,13.07
2023-05-21T04:03:47.245Z,13.24
2023-05-21T04:06:14.519Z,13.24
2023-05-21T04:08:41.178Z,13.41
2023-05-21T04:11:07.841Z,13.57
2023-05-21T04:13:34.562Z,13.63
2023-05-21T04:16:01.351Z,13.77
2023-05-21T04:18:28.354Z,13.77
2023-05-21T04:20:55.092Z,13.69
2023-05-21T04:23:23.614Z,13.70
2023-05-21T04:25:51.009Z,13.66
2023-05-21T04:28:20.523Z,13.69
2023-05-21T04:30:47.875Z,13.82
2023-05-21T04:33:18.335Z,13.92
2023-05-21T04:35:50.219Z,13.93
2023-05-21T04:38:20.052Z,13.78
2023-05-21T04:40:52.357Z,14.04
2023-05-21T04:43:25.622Z,14.05
2023-05-21T04:45:55.859Z,14.03
2023-05-21T04:48:24.906Z,14.15
2023-05-21T04:50:53.673Z,14.29
2023-05-21T04:53:20.810Z,14.38
2023-05-21T04:55:47.573Z,14.48
2023-05-21T04:58:14.760Z,14.49
2023-05-21T05:00:42.295Z,14.63
2023-05-21T05:03:09.200Z,14.80
2023-05-21T05:05:36.283Z,14.76
2023-05-21T05:08:04.134Z,15.00
2023-05-21T05:10:30.807Z,14.97
2023-05-21T05:12:57.467Z,15.11
2023-05-21T05:15:24.277Z,15.30
2023-05-21T05:17:51.078Z,15.43
2023-05-21T05:20:17.985Z,15.62
2023-05-21T05:22:44.887Z,15.86
2023-05-21T05:25:11.620Z,15.98
2023-05-21T05:27:38.731Z,16.20
2023-05-21T05:30:06.090Z,16.29
2023-05-21T05:32:32.915Z,16.39
2023-05-21T05:35:01.538Z,16.34
2023-05-21T05:37:29.024Z,16.45
2023-05-21T05:39:56.035Z,16.51
2023-05-21T05:42:22.856Z,16.68
2023-05-21T05:44:49.558Z,16.83
2023-05-21T05:47:17.377Z,16.87
2023-05-21T05:49:44.106Z,16.88
2023-05-21T05:52:10.868Z,16.92
2023-05-21T05:54:37.785Z,16.89
2023-05-21T05:57:05.078Z,16.79
2023-05-21T05:59:33.853Z,16.71
2023-05-21T06:02:01.465Z,16.96
2023-05-21T06:04:30.238Z,17.16
2023-05-21T06:07:00.612Z,17.28
2023-05-21T06:09:27.340Z,17.36
2023-05-21T06:11:54.105Z,17.40
2023-05-21T06:14:20.919Z,17.43
2023-05-21T06:16:47.565Z,17.52
2023-05-21T06:19:14.341Z,17.50
2023-05-21T06:21:41.071Z,17.41
2023-05-21T06:24:07.825Z,17.45
2023-05-21T06:26:34.553Z,17.50
2023-05-21T06:29:01.228Z,17.59
2023-05-21T06:31:28.075Z,17.65
2023-05-21T06:33:54.899Z,17.78
2023-05-21T06:36:22.166Z,17.89
2023-05-21T06:38:48.858Z,17.97
2023-05-21T06:41:15.595Z,18.17
2023-05-21T06:43:42.312Z,18.37
2023-05-21T06:46:09.080Z,18.54
2023-05-21T06:48:36.150Z,18.73
2023-05-21T06:51:02.835Z,18.97
2023-05-21T06:53:29.618Z,19.27
2023-05-21T06:55:56.393Z,19.43
2023-05-21T06:58:23.235Z,20.02
2023-05-21T07:00:50.026Z,20.67
2023-05-21T07:05:44.342Z,21.82
2023-05-21T07:08:12.192Z,22.13
2023-05-21T07:10:39.113Z,22.52
2023-05-21T07:13:06.053Z,23.11
2023-05-21T07:15:32.718Z,23.24
2023-05-21T07:17:59.684Z,23.41
2023-05-21T07:20:26.552Z,23.97
2023-05-21T07:22:53.269Z,24.52
2023-05-21T07:25:20.232Z,24.55
2023-05-21T07:27:46.975Z,24.57
2023-05-21T07:30:15.087Z,24.55
2023-05-21T07:32:42.268Z,24.33
2023-05-21T07:35:09.010Z,24.48
2023-05-21T07:37:35.729Z,24.35
2023-05-21T07:40:02.516Z,24.37
2023-05-21T07:42:29.214Z,23.82
2023-05-21T07:44:55.940Z,23.74
2023-05-21T07:47:23.798Z,23.74
2023-05-21T07:49:50.516Z,23.87
2023-05-21T07:52:17.424Z,23.78
2023-05-21T07:54:44.132Z,23.36
2023-05-21T07:57:10.986Z,23.37
2023-05-21T07:59:37.638Z,23.44
2023-05-21T08:02:04.487Z,23.28
2023-05-21T08:04:31.660Z,23.02
2023-05-21T08:06:58.278Z,22.98
2023-05-21T08:09:24.887Z,22.94
2023-05-21T08:11:51.606Z,23.22
2023-05-21T08:14:18.259Z,23.29
2023-05-21T08:16:45.529Z,23.44
2023-05-21T08:19:12.255Z,23.32
2023-05-21T08:21:38.936Z,23.25
2023-05-21T08:24:06.093Z,23.31
2023-05-21T08:26:32.623Z,23.52
2023-05-21T08:28:59.585Z,23.59
2023-05-21T08:31:26.389Z,23.62
2023-05-21T08:33:54.338Z,23.87
2023-05-21T08:36:21.477Z,24.00
2023-05-21T08:38:48.330Z,23.92
2023-05-21T08:41:16.717Z,23.98
2023-05-21T08:43:48.011Z,23.70
2023-05-21T08:46:18.936Z,23.66
2023-05-21T08:48:47.383Z,23.55
2023-05-21T08:51:14.168Z,23.63
2023-05-21T08:53:42.472Z,23.76
2023-05-21T08:56:09.876Z,23.97
2023-05-21T08:58:37.426Z,24.00
2023-05-21T09:01:04.934Z,24.12
2023-05-21T09:03:33.084Z,24.20
2023-05-21T09:06:00.902Z,24.16
2023-05-21T09:08:32.072Z,24.01
2023-05-21T09:10:58.733Z,23.63
2023-05-21T09:13:26.988Z,23.68
2023-05-21T09:15:53.751Z,23.83
2023-05-21T09:18:20.489Z,23.92
2023-05-21T09:20:47.479Z,23.79
2023-05-21T09:23:17.889Z,23.97
2023-05-21T09:25:48.871Z,24.19
2023-05-21T09:28:17.052Z,24.30
2023-05-21T09:30:47.561Z,24.44
2023-05-21T09:33:31.622Z,24.42
2023-05-21T09:35:58.482Z,24.55
2023-05-21T09:38:26.167Z,24.65
2023-05-21T09:40:56.955Z,24.88
2023-05-21T09:43:23.708Z,25.11
2023-05-21T09:45:54.858Z,25.18
2023-05-21T09:48:33.953Z,25.34
2023-05-21T09:51:17.756Z,25.37
2023-05-21T09:53:47.476Z,25.30
2023-05-21T09:56:14.143Z,25.28
2023-05-21T09:58:41.101Z,24.51
2023-05-21T10:01:08.685Z,24.62
2023-05-21T10:03:39.975Z,24.52
2023-05-21T10:06:09.472Z,24.40
2023-05-21T10:08:43.108Z,24.13
2023-05-21T10:11:11.599Z,23.64
2023-05-21T10:13:43.451Z,23.49
2023-05-21T10:16:10.748Z,23.29
2023-05-21T10:18:39.325Z,23.34
2023-05-21T10:21:07.479Z,23.61
2023-05-21T10:23:36.651Z,23.25
2023-05-21T10:26:05.643Z,23.26
2023-05-21T10:28:33.918Z,23.25
2023-05-21T10:31:01.542Z,23.22
2023-05-21T10:33:29.515Z,23.37
2023-05-21T10:35:59.504Z,23.37
2023-05-21T10:38:27.873Z,23.47
2023-05-21T10:40:55.972Z,23.27
2023-05-21T10:43:41.484Z,23.05
2023-05-21T10:46:31.449Z,22.90
2023-05-21T10:49:07.051Z,22.87
2023-05-21T10:51:36.603Z,22.68
2023-05-21T10:54:03.169Z,22.91
2023-05-21T10:56:54.868Z,22.89
2023-05-21T10:59:58.402Z,22.97
2023-05-21T11:02:27.559Z,22.77
2023-05-21T11:05:01.809Z,22.69
2023-05-21T11:07:52.945Z,22.78
2023-05-21T11:10:32.959Z,22.62
2023-05-21T11:13:16.724Z,22.67
2023-05-21T11:16:16.926Z,22.66
2023-05-21T11:18:46.601Z,22.50
2023-05-21T11:21:18.723Z,22.26
2023-05-21T11:23:49.600Z,22.29
2023-05-21T11:26:24.602Z,22.32
2023-05-21T11:29:06.775Z,22.26
2023-05-21T11:31:38.611Z,22.16
2023-05-21T11:34:30.185Z,22.19
2023-05-21T11:37:18.548Z,22.21
2023-05-21T11:39:45.872Z,22.12
2023-05-21T11:42:12.584Z,22.02
2023-05-21T11:44:40.242Z,21.88
2023-05-21T11:47:08.727Z,21.69
2023-05-21T11:49:36.100Z,21.50
2023-05-21T11:52:06.101Z,21.57
2023-05-21T11:54:37.602Z,21.31
2023-05-21T11:57:08.298Z,21.40
2023-05-21T11:59:36.388Z,21.32
2023-05-21T12:02:04.895Z,21.18
2023-05-21T12:04:32.869Z,21.12
2023-05-21T12:06:59.638Z,21.28
2023-05-21T12:09:26.442Z,21.36
2023-05-21T12:11:53.556Z,21.38
2023-05-21T12:14:21.737Z,21.49
2023-05-21T12:16:48.478Z,21.37
2023-05-21T12:19:19.081Z,21.43
2023-05-21T12:21:46.006Z,21.55
2023-05-21T12:24:12.927Z,21.48
2023-05-21T12:26:42.056Z,21.53
2023-05-21T12:29:08.909Z,21.53
2023-05-21T12:31:48.417Z,21.65
2023-05-21T12:34:18.752Z,21.73
2023-05-21T12:36:52.052Z,21.76
2023-05-21T12:39:20.056Z,21.60
2023-05-21T12:41:46.977Z,21.74
2023-05-21T12:44:13.646Z,21.56
2023-05-21T12:46:41.650Z,21.65
2023-05-21T12:49:08.950Z,21.72
2023-05-21T12:51:39.998Z,21.64
2023-05-21T12:54:13.142Z,21.69
2023-05-21T12:56:46.544Z,21.60
2023-05-21T12:59:14.757Z,21.66
2023-05-21T13:01:41.557Z,21.57
2023-05-21T13:04:08.515Z,21.64
2023-05-21T13:06:44.444Z,21.75
2023-05-21T13:09:11.463Z,21.84
2023-05-21T13:11:38.050Z,21.89
2023-05-21T13:14:04.732Z,22.08
2023-05-21T13:16:31.604Z,21.94
2023-05-21T13:18:58.330Z,22.06
2023-05-21T13:21:25.059Z,22.14
2023-05-21T13:23:51.695Z,22.22
2023-05-21T13:26:18.386Z,22.25
2023-05-21T13:28:45.365Z,22.44
2023-05-21T13:31:12.312Z,22.66
2023-05-21T13:33:39.033Z,22.64
2023-05-21T13:36:05.970Z,22.69
2023-05-21T13:38:32.617Z,22.84
2023-05-21T13:40:59.343Z,22.94
2023-05-21T13:43:26.197Z,23.05
2023-05-21T13:45:53.080Z,23.11
2023-05-21T13:48:19.813Z,23.08
2023-05-21T13:50:46.562Z,23.07
2023-05-21T13:53:13.179Z,23.01
2023-05-21T13:55:39.805Z,22.89
2023-05-21T13:58:06.528Z,22.66
2023-05-21T14:00:33.161Z,22.64
2023-05-21T14:03:00.421Z,22.49
2023-05-21T14:05:27.055Z,22.64
2023-05-21T14:07:53.720Z,22.60
2023-05-21T14:10:20.733Z,22.53
2023-05-21T14:12:47.395Z,22.64
2023-05-21T14:15:14.203Z,22.71
2023-05-21T14:17:42.377Z,22.77
2023-05-21T14:20:10.082Z,22.64
2023-05-21T14:22:37.786Z,22.54
2023-05-21T14:25:04.684Z,22.57
2023-05-21T14:27:31.339Z,22.42
2023-05-21T14:29:58.023Z,22.39
2023-05-21T14:32:24.855Z,22.47
2023-05-21T14:34:51.552Z,22.44
2023-05-21T14:37:18.304Z,22.47
2023-05-21T14:39:45.009Z,22.35
2023-05-21T14:42:11.780Z,22.16
2023-05-21T14:44:38.586Z,21.97
2023-05-21T14:47:05.234Z,21.96
2023-05-21T14:49:34.575Z,21.95
2023-05-21T14:52:01.285Z,22.01
2023-05-21T14:54:27.960Z,21.89
2023-05-21T14:56:55.343Z,21.63
2023-05-21T14:59:21.911Z,21.77
2023-05-21T15:01:48.793Z,21.60
2023-05-21T15:04:15.646Z,21.53
2023-05-21T15:06:42.393Z,21.48
2023-05-21T15:09:09.136Z,21.46
2023-05-21T15:11:36.068Z,21.40
2023-05-21T15:14:02.746Z,21.23
2023-05-21T15:16:29.544Z,21.35
2023-05-21T15:18:56.783Z,21.44
2023-05-21T15:21:24.871Z,21.50
2023-05-21T15:23:53.305Z,21.41
2023-05-21T15:26:20.045Z,21.40
2023-05-21T15:28:46.720Z,21.25
2023-05-21T15:31:13.405Z,21.33
2023-05-21T15:33:40.137Z,21.34
2023-05-21T15:36:07.208Z,21.25
2023-05-21T15:38:33.949Z,21.19
2023-05-21T15:41:00.765Z,21.22
2023-05-21T15:43:27.455Z,21.19
2023-05-21T15:45:54.247Z,21.22
2023-05-21T15:48:22.823Z,21.22
2023-05-21T15:50:50.082Z,21.07
2023-05-21T15:53:16.641Z,21.17
2023-05-21T15:55:43.373Z,20.99
2023-05-21T15:58:10.039Z,20.98
2023-05-21T16:00:36.818Z,21.09
2023-05-21T16:03:03.946Z,21.12
2023-05-21T16:05:30.756Z,21.09
2023-05-21T16:07:57.410Z,20.97
2023-05-21T16:10:24.856Z,21.05
2023-05-21T16:12:51.585Z,20.94
2023-05-21T16:15:18.231Z,20.79
2023-05-21T16:17:45.013Z,20.79
2023-05-21T16:20:12.395Z,20.78
2023-05-21T16:22:40.425Z,20.63
2023-05-21T16:25:07.717Z,20.70
2023-05-21T16:27:35.639Z,20.65
2023-05-21T16:30:02.534Z,20.65
2023-05-21T16:32:29.256Z,20.60
2023-05-21T16:34:56.008Z,20.53
2023-05-21T16:37:22.741Z,20.47
2023-05-21T16:39:49.428Z,20.55
2023-05-21T16:42:16.132Z,20.63
2023-05-21T16:44:42.808Z,20.64
2023-05-21T16:47:09.446Z,20.65
2023-05-21T16:49:36.170Z,20.61
2023-05-21T16:52:03.448Z,20.61
2023-05-21T16:54:30.005Z,20.61
2023-05-21T16:56:56.722Z,20.60
2023-05-21T16:59:23.445Z,20.61
2023-05-21T17:01:50.170Z,20.56
2023-05-21T17:04:16.938Z,20.60
2023-05-21T17:06:43.677Z,20.60
2023-05-21T17:09:10.336Z,20.68
2023-05-21T17:11:37.035Z,20.73
2023-05-21T17:14:03.916Z,20.69
2023-05-21T17:16:30.809Z,20.71
2023-05-21T17:18:57.559Z,20.66
2023-05-21T17:21:26.101Z,20.69
2023-05-21T17:23:52.939Z,20.73
2023-05-21T17:26:19.630Z,20.72
2023-05-21T17:28:46.511Z,20.68
2023-05-21T17:31:14.111Z,20.63
2023-05-21T17:33:40.828Z,20.60
2023-05-21T17:36:07.557Z,20.52
2023-05-21T17:38:34.151Z,20.53
2023-05-21T17:41:00.979Z,20.52
2023-05-21T17:43:27.919Z,20.48
2023-05-21T17:45:54.724Z,20.44
2023-05-21T17:48:21.577Z,20.31
2023-05-21T17:50:48.423Z,20.21
2023-05-21T17:53:15.338Z,20.17
2023-05-21T17:55:42.053Z,20.12
2023-05-21T17:58:09.991Z,20.01
2023-05-21T18:00:36.860Z,19.95
2023-05-21T18:03:04.377Z,19.87
2023-05-21T18:05:31.152Z,19.85
2023-05-21T18:07:59.119Z,19.81
2023-05-21T18:10:25.840Z,19.72
2023-05-21T18:12:52.554Z,19.62
2023-05-21T18:15:19.251Z,19.58
2023-05-21T18:17:47.845Z,19.46
2023-05-21T18:20:14.964Z,19.41
2023-05-21T18:22:41.671Z,19.35
2023-05-21T18:25:09.058Z,19.35
2023-05-21T18:27:36.004Z,19.34
2023-05-21T18:30:05.426Z,19.28
2023-05-21T18:32:33.976Z,19.29
2023-05-21T18:35:00.752Z,19.25
2023-05-21T18:37:27.370Z,19.30
2023-05-21T18:39:54.127Z,19.18
2023-05-21T18:42:20.879Z,19.06
2023-05-21T18:44:50.644Z,19.05
2023-05-21T18:47:17.383Z,19.07
2023-05-21T18:49:44.107Z,19.04
2023-05-21T18:52:10.846Z,19.00
2023-05-21T18:54:37.527Z,19.05
2023-05-21T18:57:04.369Z,19.07
2023-05-21T18:59:31.495Z,19.11
2023-05-21T19:01:58.172Z,19.06
2023-05-21T19:04:24.894Z,19.01
2023-05-21T19:06:51.609Z,18.90
2023-05-21T19:09:18.255Z,18.81
2023-05-21T19:11:44.937Z,18.69
2023-05-21T19:14:12.114Z,18.62
2023-05-21T19:16:38.843Z,18.46
2023-05-21T19:19:06.200Z,18.38
2023-05-21T19:21:32.829Z,18.30
2023-05-21T19:23:59.596Z,18.34
2023-05-21T19:26:26.293Z,18.34
2023-05-21T19:28:54.538Z,18.39
2023-05-21T19:31:23.099Z,18.31
2023-05-21T19:33:50.003Z,18.36
2023-05-21T19:36:17.001Z,18.34
2023-05-21T19:38:51.079Z,18.31
2023-05-21T19:41:18.734Z,18.33
2023-05-21T19:43:46.016Z,18.25
2023-05-21T19:46:13.182Z,18.16
2023-05-21T19:48:39.985Z,18.13
2023-05-21T19:51:06.664Z,18.12
2023-05-21T19:53:33.352Z,18.05
2023-05-21T19:56:00.131Z,18.00
2023-05-21T19:58:29.610Z,17.98
2023-05-21T20:00:58.446Z,17.96
2023-05-21T20:03:26.730Z,18.01
2023-05-21T20:05:53.716Z,18.00
2023-05-21T20:08:20.821Z,17.90
2023-05-21T20:10:49.596Z,17.84
2023-05-21T20:13:18.247Z,17.71
2023-05-21T20:15:44.925Z,17.60
2023-05-21T20:18:13.002Z,17.48
2023-05-21T20:20:41.521Z,17.26
2023-05-21T20:23:08.642Z,17.27
2023-05-21T20:25:35.303Z,17.27
2023-05-21T20:28:03.691Z,17.26
2023-05-21T20:30:34.825Z,17.34
2023-05-21T20:33:03.141Z,17.28
2023-05-21T20:35:30.706Z,17.46
2023-05-21T20:37:57.510Z,17.46
2023-05-21T20:40:24.288Z,17.40
2023-05-21T20:42:53.161Z,17.28
2023-05-21T20:45:21.135Z,17.23
2023-05-21T20:47:48.124Z,17.20
2023-05-21T20:50:17.524Z,17.15
2023-05-21T20:52:47.039Z,17.15
2023-05-21T20:55:14.741Z,17.13
2023-05-21T20:57:41.645Z,17.14
2023-05-21T21:00:10.671Z,17.12
2023-05-21T21:02:38.829Z,17.19
2023-05-21T21:05:06.154Z,17.15
2023-05-21T21:07:34.409Z,17.18
2023-05-21T21:10:01.517Z,17.08
2023-05-21T21:12:28.558Z,17.04
2023-05-21T21:14:55.756Z,16.92
2023-05-21T21:17:23.190Z,17.02
2023-05-21T21:19:50.051Z,16.99
2023-05-21T21:22:18.307Z,16.98
2023-05-21T21:24:45.702Z,16.95
2023-05-21T21:27:12.427Z,16.76
2023-05-21T21:29:39.138Z,16.77
2023-05-21T21:32:06.293Z,16.74
2023-05-21T21:34:32.915Z,16.74
2023-05-21T21:36:59.535Z,16.74
2023-05-21T21:39:26.860Z,16.74
2023-05-21T21:41:53.450Z,16.71
2023-05-21T21:44:20.110Z,16.71
2023-05-21T21:46:47.256Z,16.58
2023-05-21T21:49:15.717Z,16.70
2023-05-21T21:51:44.535Z,16.64
2023-05-21T21:54:11.757Z,16.63
2023-05-21T21:56:38.483Z,16.64
2023-05-21T21:59:05.188Z,16.62
2023-05-21T22:01:32.054Z,16.52
2023-05-21T22:03:59.249Z,16.54
2023-05-21T22:06:27.677Z,16.43
2023-05-21T22:08:55.014Z,16.31
2023-05-21T22:11:22.070Z,16.29
2023-05-21T22:13:48.972Z,16.23
2023-05-21T22:16:15.864Z,16.13
2023-05-21T22:18:42.546Z,16.08
2023-05-21T22:21:10.642Z,15.90
2023-05-21T22:23:38.280Z,15.87
2023-05-21T22:26:05.014Z,15.88
2023-05-21T22:28:31.761Z,15.83
2023-05-21T22:30:59.040Z,15.79
2023-05-21T22:33:26.671Z,15.79
2023-05-21T22:35:54.366Z,15.80
2023-05-21T22:38:21.537Z,15.82
2023-05-21T22:40:48.438Z,15.89
2023-05-21T22:43:15.365Z,15.93
2023-05-21T22:45:42.322Z,15.98
2023-05-21T22:48:09.623Z,15.89
2023-05-21T22:50:38.634Z,15.97
2023-05-21T22:53:06.520Z,15.52
2023-05-21T22:55:33.268Z,15.62
2023-05-21T22:57:59.934Z,15.32
2023-05-21T23:00:26.909Z,15.28
2023-05-21T23:02:54.731Z,15.46
2023-05-21T23:05:22.179Z,15.45
2023-05-21T23:07:49.019Z,15.50
2023-05-21T23:10:15.977Z,15.54
2023-05-21T23:12:43.078Z,15.58
2023-05-21T23:15:10.869Z,15.62
2023-05-21T23:17:38.016Z,15.68
2023-05-21T23:20:07.478Z,15.63
2023-05-21T23:22:34.792Z,15.61
2023-05-21T23:25:01.507Z,15.48
2023-05-21T23:27:28.275Z,15.46
2023-05-21T23:29:54.920Z,15.27
2023-05-21T23:32:21.679Z,15.22
2023-05-21T23:34:48.358Z,15.05
2023-05-21T23:37:15.113Z,15.03
2023-05-21T23:39:41.869Z,15.07
2023-05-21T23:42:08.468Z,15.12
2023-05-21T23:44:35.129Z,15.08
2023-05-21T23:47:01.887Z,15.09
2023-05-21T23:49:28.548Z,15.08
2023-05-21T23:51:55.629Z,14.94
2023-05-21T23:54:22.501Z,14.95
2023-05-21T23:56:49.282Z,15.02
2023-05-21T23:59:18.375Z,14.66
